Time;durP1;ratioP1;P1;durP2;ratioP2;P2;SDS_P1;SDS_P2;PMS_P1;PMS_P2;Temp;Humidity;BMP_temperature;BMP_pressure;BME280_temperature;BME280_humidity;BME280_pressure;Samples;Min_cycle;Max_cycle;Signal;HPM_P1;HPM_P2
2022/07/29 00:02:25;;;;;;;10.43;0.90;;;;;;;22.28;65.40;100056.69;5022590;28;20444;-50
2022/07/29 00:04:52;;;;;;;0.70;0.70;;;;;;;22.22;67.60;100055.34;5026116;28;20478;-50
2022/07/29 00:07:18;;;;;;;2.40;0.70;;;;;;;22.02;66.62;100062.31;5024324;28;20452;-50
2022/07/29 00:09:45;;;;;;;2.70;1.07;;;;;;;21.99;66.42;100067.97;5019714;28;20824;-49
2022/07/29 00:12:23;;;;;;;0.93;0.77;;;;;;;21.84;66.20;100058.34;5021080;28;20542;-49
2022/07/29 00:14:53;;;;;;;0.80;0.60;;;;;;;21.96;64.79;100056.53;5026535;28;20469;-49
2022/07/29 00:17:20;;;;;;;0.80;0.50;;;;;;;22.06;65.77;100054.81;5027054;28;20542;-50
2022/07/29 00:19:46;;;;;;;1.13;0.77;;;;;;;21.90;64.96;100055.16;5019576;28;20470;-51
2022/07/29 00:22:13;;;;;;;1.00;0.80;;;;;;;21.60;65.32;100058.44;5032709;28;20447;-49
2022/07/29 00:24:39;;;;;;;1.50;1.13;;;;;;;21.54;65.60;100048.09;5025482;28;20468;-50
2022/07/29 00:27:06;;;;;;;1.93;1.17;;;;;;;21.44;67.28;100045.25;5019473;28;20453;-49
2022/07/29 00:29:32;;;;;;;1.30;1.00;;;;;;;21.41;66.81;100040.09;5025891;28;20560;-50
2022/07/29 00:32:01;;;;;;;22.37;1.37;;;;;;;21.19;66.07;100029.16;5025419;28;20479;-50
2022/07/29 00:37:13;;;;;;;1.93;1.17;;;;;;;21.52;66.35;100020.31;5018955;28;20454;-49
2022/07/29 00:39:39;;;;;;;0.70;0.60;;;;;;;21.57;67.66;100010.84;5022485;28;20455;-49
2022/07/29 00:42:06;;;;;;;11.37;1.10;;;;;;;21.27;67.98;100005.13;5026358;28;20454;-50
2022/07/29 00:44:37;;;;;;;4.03;0.97;;;;;;;21.26;69.28;99998.88;5023080;28;20468;-49
2022/07/29 00:47:03;;;;;;;1.20;1.10;;;;;;;21.25;68.33;99990.88;5026334;28;20519;-49
2022/07/29 00:49:30;;;;;;;1.10;0.80;;;;;;;21.24;68.38;100003.50;5021114;28;20480;-50
2022/07/29 00:51:57;;;;;;;1.87;0.70;;;;;;;20.93;69.97;99996.00;5024569;28;20492;-49
2022/07/29 00:54:23;;;;;;;2.40;0.77;;;;;;;20.80;71.99;100014.97;5022237;28;20481;-49
2022/07/29 00:56:50;;;;;;;13.23;1.20;;;;;;;20.95;74.45;100021.06;5018990;28;20454;-51
2022/07/29 00:59:16;;;;;;;6.83;2.77;;;;;;;20.37;78.16;100001.94;5020219;28;20457;-50
2022/07/29 01:01:43;;;;;;;18.97;1.43;;;;;;;20.19;83.11;99975.47;5025585;28;20445;-51
2022/07/29 01:04:09;;;;;;;19.53;3.27;;;;;;;19.29;89.72;99946.84;5024270;28;20468;-50
2022/07/29 01:06:36;;;;;;;8.70;0.63;;;;;;;18.94;88.07;99961.78;5018883;28;20455;-49
2022/07/29 01:09:03;;;;;;;9.70;1.97;;;;;;;19.26;93.50;99963.22;5019738;28;20980;-49
2022/07/29 01:11:29;;;;;;;2.57;1.17;;;;;;;19.45;97.11;99963.66;5025133;28;20503;-49
2022/07/29 01:13:56;;;;;;;1.60;1.40;;;;;;;19.62;96.44;99965.22;5025178;28;20838;-49
2022/07/29 01:16:32;;;;;;;4.77;2.37;;;;;;;19.45;90.57;99963.66;5018959;28;20454;-49
2022/07/29 01:19:12;;;;;;;0.90;0.60;;;;;;;19.73;91.79;99958.06;5031181;28;20449;-48
2022/07/29 01:21:57;;;;;;;3.20;1.10;;;;;;;19.64;91.76;99950.63;5036805;28;20803;-49
2022/07/29 01:24:48;;;;;;;1.10;0.97;;;;;;;19.52;90.73;99935.31;5028535;28;20468;-49
2022/07/29 01:27:29;;;;;;;3.70;1.40;;;;;;;19.46;89.36;99943.81;5020319;28;20456;-49
2022/07/29 01:29:59;;;;;;;5.80;1.27;;;;;;;19.48;91.99;99940.06;5022002;28;20451;-50
2022/07/29 01:32:29;;;;;;;1.43;1.20;;;;;;;19.85;89.86;99948.22;5025208;28;21012;-50
2022/07/29 01:35:02;;;;;;;1.30;1.20;;;;;;;19.25;96.88;99959.66;5023191;28;20993;-50
2022/07/29 01:37:40;;;;;;;1.23;1.13;;;;;;;19.04;100.00;99967.41;5018792;28;20448;-49
2022/07/29 01:40:18;;;;;;;1.30;1.17;;;;;;;19.32;100.00;99955.56;5018722;28;20520;-49
2022/07/29 01:42:50;;;;;;;1.53;1.43;;;;;;;19.23;100.00;99948.13;5023039;28;20905;-49
2022/07/29 01:45:34;;;;;;;8.23;2.07;;;;;;;19.23;100.00;99951.69;5025249;28;20471;-50
2022/07/29 01:48:17;;;;;;;1.50;1.20;;;;;;;19.29;100.00;99953.09;5031202;28;20850;-50
2022/07/29 01:50:49;;;;;;;3.03;1.10;;;;;;;19.08;100.00;99960.84;5019983;28;20454;-50
2022/07/29 01:53:31;;;;;;;3.17;1.80;;;;;;;19.09;100.00;99962.56;5018178;28;20492;-50
2022/07/29 01:56:06;;;;;;;1.13;1.03;;;;;;;18.86;100.00;99952.50;5019741;28;20829;-50
2022/07/29 01:58:36;;;;;;;6.10;1.63;;;;;;;18.85;100.00;99950.78;5025039;28;20448;-50
2022/07/29 02:01:04;;;;;;;1.53;1.30;;;;;;;18.65;100.00;99949.44;5024970;28;20513;-49
2022/07/29 02:03:32;;;;;;;0.90;0.90;;;;;;;18.87;100.00;99955.09;5018164;28;20444;-50
2022/07/29 02:06:01;;;;;;;7.30;0.90;;;;;;;18.60;100.00;99956.91;5018905;28;20488;-49
2022/07/29 02:08:30;;;;;;;1.13;1.03;;;;;;;18.77;100.00;99950.41;5022702;28;20454;-50
2022/07/29 02:10:58;;;;;;;0.70;0.70;;;;;;;18.72;100.00;99950.75;5021583;28;20946;-49
2022/07/29 02:13:27;;;;;;;3.63;1.23;;;;;;;18.56;100.00;99961.66;5027173;28;20495;-50
2022/07/29 02:15:57;;;;;;;2.60;1.60;;;;;;;18.48;100.00;99958.59;5029895;28;20545;-50
2022/07/29 02:18:27;;;;;;;2.23;1.73;;;;;;;18.70;100.00;99960.75;5025965;28;20488;-50
2022/07/29 02:20:56;;;;;;;1.60;1.03;;;;;;;18.54;100.00;99963.59;5034371;28;20431;-50
2022/07/29 02:23:24;;;;;;;0.97;0.80;;;;;;;18.65;100.00;99962.91;5045265;28;20444;-49
2022/07/29 02:25:56;;;;;;;3.37;1.13;;;;;;;18.70;100.00;99962.59;5021181;28;20981;-49
2022/07/29 02:28:27;;;;;;;1.63;1.53;;;;;;;18.43;100.00;99960.75;5027641;28;20452;-50
2022/07/29 02:30:57;;;;;;;1.30;1.20;;;;;;;18.25;100.00;99961.97;5021640;28;20447;-49
2022/07/29 02:33:25;;;;;;;1.83;1.73;;;;;;;18.10;100.00;99954.91;5023047;28;20484;-50
2022/07/29 02:35:52;;;;;;;2.37;1.03;;;;;;;18.05;100.00;99950.66;5028244;28;20473;-49
2022/07/29 02:41:11;;;;;;;1.90;1.53;;;;;;;18.10;100.00;99946.84;5026574;28;20444;-51
2022/07/29 02:43:40;;;;;;;1.33;1.23;;;;;;;18.08;100.00;99948.72;5028223;28;20444;-50
2022/07/29 02:46:11;;;;;;;1.40;1.23;;;;;;;18.00;100.00;99944.72;5024043;28;20458;-49
2022/07/29 02:49:28;;;;;;;2.30;1.97;;;;;;;18.15;100.00;99944.69;5028925;28;20441;-49
2022/07/29 02:51:59;;;;;;;1.13;0.97;;;;;;;18.04;100.00;99943.56;5027483;28;20993;-49
2022/07/29 02:54:36;;;;;;;15.60;1.43;;;;;;;18.12;100.00;99950.28;5026245;28;20570;-53
2022/07/29 02:57:10;;;;;;;4.73;1.57;;;;;;;17.83;100.00;99947.66;5021032;28;20444;-52
2022/07/29 02:59:41;;;;;;;1.60;1.50;;;;;;;18.03;100.00;99947.22;5020850;28;20810;-52
2022/07/29 03:02:09;;;;;;;0.93;0.87;;;;;;;18.11;100.00;99949.41;5025904;28;20448;-52
2022/07/29 03:04:40;;;;;;;4.80;1.20;;;;;;;18.01;100.00;99949.13;5027630;28;20511;-53
2022/07/29 03:07:06;;;;;;;3.20;1.00;;;;;;;18.05;100.00;99947.97;5023690;28;20498;-52
2022/07/29 03:09:34;;;;;;;2.07;1.10;;;;;;;18.51;100.00;99961.09;5020615;28;20824;-53
2022/07/29 03:12:03;;;;;;;2.70;1.37;;;;;;;18.34;100.00;99967.59;5024800;28;20583;-52
2022/07/29 03:14:31;;;;;;;4.60;1.40;;;;;;;18.00;100.00;99968.94;5028057;28;20472;-53
2022/07/29 03:16:58;;;;;;;2.60;1.27;;;;;;;17.64;100.00;99972.09;5025217;28;20452;-53
2022/07/29 03:19:26;;;;;;;1.30;1.20;;;;;;;17.57;100.00;99965.38;5020115;28;20483;-53
2022/07/29 03:21:56;;;;;;;1.30;1.17;;;;;;;17.63;100.00;99964.13;5044866;28;20447;-52
2022/07/29 03:24:28;;;;;;;8.53;1.60;;;;;;;17.52;100.00;99961.25;5030863;28;20472;-52
2022/07/29 03:26:56;;;;;;;1.73;1.53;;;;;;;17.68;100.00;99972.75;5020438;28;20452;-52
2022/07/29 03:29:22;;;;;;;1.50;1.40;;;;;;;17.50;100.00;99973.91;5027390;28;20457;-52
2022/07/29 03:31:50;;;;;;;1.27;1.17;;;;;;;17.59;100.00;99973.34;5025286;28;20538;-52
2022/07/29 03:34:16;;;;;;;3.10;1.73;;;;;;;17.41;100.00;99973.53;5020429;28;20555;-52
2022/07/29 03:36:43;;;;;;;2.13;2.03;;;;;;;17.25;100.00;99971.88;5020843;28;20839;-52
2022/07/29 03:39:20;;;;;;;2.77;1.67;;;;;;;17.32;100.00;99970.56;5026942;28;21033;-52
2022/07/29 03:41:49;;;;;;;0.80;0.60;;;;;;;17.28;100.00;99963.66;5026940;28;20992;-51
2022/07/29 03:44:17;;;;;;;2.33;1.63;;;;;;;17.18;100.00;99974.09;5022247;28;20476;-52
2022/07/29 03:46:48;;;;;;;2.30;2.13;;;;;;;17.25;100.00;99971.88;5026817;28;20447;-51
2022/07/29 03:49:16;;;;;;;3.83;1.90;;;;;;;17.18;100.00;99974.09;5023996;28;20451;-52
2022/07/29 03:51:42;;;;;;;2.07;1.40;;;;;;;17.30;100.00;99978.72;5027048;28;20954;-52
2022/07/29 03:54:09;;;;;;;1.93;1.73;;;;;;;16.96;100.00;99976.31;5022669;28;20499;-52
2022/07/29 03:56:40;;;;;;;0.97;0.87;;;;;;;16.97;100.00;99970.84;5020306;28;20446;-52
2022/07/29 03:59:07;;;;;;;37.10;1.80;;;;;;;17.09;100.00;99980.88;5022863;28;20445;-52
2022/07/29 04:01:35;;;;;;;1.60;1.50;;;;;;;16.88;100.00;99974.97;5026548;28;20455;-52
2022/07/29 04:04:02;;;;;;;2.10;1.90;;;;;;;16.84;100.00;99969.88;5023979;28;20467;-52
2022/07/29 04:06:28;;;;;;;4.93;2.00;;;;;;;16.81;100.00;99980.78;5019946;28;20462;-52
2022/07/29 04:08:55;;;;;;;1.43;0.93;;;;;;;16.88;100.00;99984.84;5022512;28;20455;-52
2022/07/29 04:11:21;;;;;;;1.73;1.63;;;;;;;16.96;100.00;99976.31;5026403;28;20452;-52
2022/07/29 04:13:48;;;;;;;1.53;1.30;;;;;;;16.98;100.00;99980.63;5024772;28;20864;-52
2022/07/29 04:16:14;;;;;;;10.27;2.07;;;;;;;17.04;100.00;99982.97;5019393;28;20452;-52
2022/07/29 04:18:41;;;;;;;1.67;1.57;;;;;;;16.93;100.00;99985.44;5032643;28;20823;-51
2022/07/29 04:21:07;;;;;;;1.60;1.50;;;;;;;16.95;100.00;99985.34;5030990;28;20509;-52
2022/07/29 04:23:34;;;;;;;5.90;1.60;;;;;;;16.87;100.00;99992.03;5041189;28;20440;-52
2022/07/29 04:26:12;;;;;;;1.53;1.43;;;;;;;17.05;100.00;99990.06;5019315;28;20447;-53
2022/07/29 04:28:40;;;;;;;1.30;1.20;;;;;;;17.14;100.00;99988.66;5026164;28;20452;-52
2022/07/29 04:31:06;;;;;;;1.60;1.50;;;;;;;17.20;100.00;99987.41;5018797;28;20542;-52
2022/07/29 04:33:33;;;;;;;6.57;1.13;;;;;;;17.73;100.00;99984.13;5019189;28;20488;-53
2022/07/29 04:35:59;;;;;;;2.40;1.27;;;;;;;17.34;100.00;99993.69;5024082;28;20480;-53
2022/07/29 04:38:26;;;;;;;1.77;1.67;;;;;;;17.25;100.00;99991.53;5026160;28;20482;-53
2022/07/29 04:40:53;;;;;;;1.60;1.50;;;;;;;17.36;100.00;99996.25;5020048;28;20448;-52
2022/07/29 04:43:19;;;;;;;1.20;1.10;;;;;;;17.44;100.00;99991.31;5019124;28;20448;-52
2022/07/29 04:45:48;;;;;;;1.80;1.40;;;;;;;17.45;100.00;99990.34;5025150;28;20982;-53
2022/07/29 04:48:16;;;;;;;6.40;1.73;;;;;;;17.52;100.00;99986.28;5030400;28;20455;-52
2022/07/29 04:50:44;;;;;;;3.27;1.10;;;;;;;17.69;100.00;99988.84;5021139;28;20451;-53
2022/07/29 04:53:10;;;;;;;1.47;1.33;;;;;;;18.18;100.00;99993.78;5019050;28;20480;-53
2022/07/29 04:55:36;;;;;;;2.40;0.97;;;;;;;19.05;100.00;99989.81;5023256;28;20503;-53
2022/07/29 04:58:04;;;;;;;3.00;1.20;;;;;;;19.67;100.00;99990.88;5025349;28;21034;-53
2022/07/29 05:00:30;;;;;;;3.70;1.73;;;;;;;20.09;96.90;99988.75;5022078;28;20452;-54
2022/07/29 05:02:59;;;;;;;1.50;1.40;;;;;;;20.40;93.84;100000.84;5019163;28;20548;-54
2022/07/29 05:05:25;;;;;;;1.23;1.13;;;;;;;20.73;94.11;100002.06;5022218;28;20977;-53
2022/07/29 05:07:52;;;;;;;3.10;1.80;;;;;;;20.54;92.03;100003.44;5025475;28;20448;-54
2022/07/29 05:10:18;;;;;;;2.10;1.90;;;;;;;21.13;91.74;99989.09;5022207;28;20451;-54
2022/07/29 05:12:45;;;;;;;6.50;2.50;;;;;;;21.28;90.69;99996.91;5019043;28;20504;-54
2022/07/29 05:15:11;;;;;;;2.23;2.13;;;;;;;21.63;89.52;100003.22;5022046;28;20483;-54
2022/07/29 05:17:37;;;;;;;3.93;2.30;;;;;;;21.49;90.29;100005.16;5028677;28;20455;-52
2022/07/29 05:20:05;;;;;;;3.90;1.67;;;;;;;21.71;90.42;100000.78;5025819;28;20456;-52
2022/07/29 05:22:32;;;;;;;1.80;1.70;;;;;;;21.80;89.89;100003.63;5045301;28;20447;-53
2022/07/29 05:24:58;;;;;;;3.40;3.13;;;;;;;21.92;87.66;99996.34;5022230;28;20544;-52
2022/07/29 05:27:27;;;;;;;2.60;2.40;;;;;;;22.17;87.65;100003.38;5022599;28;20887;-53
2022/07/29 05:29:54;;;;;;;2.67;2.17;;;;;;;22.67;87.65;100006.50;5021999;28;20453;-53
2022/07/29 05:32:20;;;;;;;2.10;2.00;;;;;;;22.93;86.66;100009.75;5025519;28;20459;-53
2022/07/29 05:34:47;;;;;;;4.10;3.17;;;;;;;22.37;85.49;100008.03;5022841;28;20486;-52
2022/07/29 05:37:20;;;;;;;2.33;2.13;;;;;;;22.62;85.97;100006.88;5018655;28;20812;-54
2022/07/29 05:39:46;;;;;;;3.30;3.03;;;;;;;22.66;82.93;99996.63;5020251;28;20455;-52
2022/07/29 05:42:16;;;;;;;2.30;2.07;;;;;;;22.53;84.40;100007.63;5027904;28;20454;-53
2022/07/29 05:44:42;;;;;;;2.53;2.33;;;;;;;22.74;83.79;100002.25;5027642;28;20459;-53
2022/07/29 05:47:09;;;;;;;2.33;2.23;;;;;;;22.87;81.89;99999.41;5029050;28;20454;-52
2022/07/29 05:49:35;;;;;;;4.10;2.00;;;;;;;22.80;82.92;100000.91;5023692;28;20452;-53
2022/07/29 05:52:02;;;;;;;3.50;2.53;;;;;;;22.58;83.10;99999.13;5029236;28;20452;-52
2022/07/29 05:54:28;;;;;;;1.80;1.70;;;;;;;22.73;82.50;99998.69;5028176;28;20500;-52
2022/07/29 05:56:55;;;;;;;2.00;1.60;;;;;;;22.96;84.03;100004.94;5022021;28;20456;-52
2022/07/29 05:59:22;;;;;;;1.97;1.87;;;;;;;22.90;86.32;100012.75;5023095;28;20458;-54
2022/07/29 06:01:56;;;;;;;3.67;2.67;;;;;;;22.79;85.60;100013.59;5022088;28;20874;-53
2022/07/29 06:04:23;;;;;;;8.40;2.20;;;;;;;22.93;83.53;100012.47;5021636;28;20559;-52
2022/07/29 06:06:49;;;;;;;3.90;3.03;;;;;;;23.10;82.99;100020.03;5028858;28;20499;-53
2022/07/29 06:09:16;;;;;;;1.60;1.50;;;;;;;23.46;84.56;100024.16;5028887;28;20447;-53
2022/07/29 06:11:43;;;;;;;2.00;1.70;;;;;;;23.77;82.91;100022.38;5022067;28;20447;-54
2022/07/29 06:14:09;;;;;;;1.73;1.63;;;;;;;23.75;81.98;100018.09;5021327;28;21104;-52
2022/07/29 06:16:36;;;;;;;11.40;2.90;;;;;;;24.10;81.81;100028.53;5034851;28;20447;-54
2022/07/29 06:19:03;;;;;;;3.30;3.10;;;;;;;23.69;81.79;100019.47;5022403;28;20528;-54
2022/07/29 06:21:30;;;;;;;4.97;2.70;;;;;;;24.02;80.63;100021.06;5043294;28;20449;-53
2022/07/29 06:23:56;;;;;;;2.53;2.33;;;;;;;23.87;83.09;100031.44;5038291;28;20444;-53
2022/07/29 06:26:23;;;;;;;1.97;1.87;;;;;;;23.79;80.36;100027.66;5021607;28;20840;-54
2022/07/29 06:28:57;;;;;;;6.33;1.47;;;;;;;23.81;78.85;100017.53;5028442;28;20443;-53
2022/07/29 06:31:23;;;;;;;4.20;2.17;;;;;;;24.17;79.14;100025.13;5025055;28;20447;-53
2022/07/29 06:33:50;;;;;;;5.20;2.13;;;;;;;24.02;75.04;100020.22;5021590;28;20526;-52
2022/07/29 06:36:20;;;;;;;2.40;2.20;;;;;;;24.44;77.58;100024.53;5024281;28;20479;-53
2022/07/29 06:38:48;;;;;;;8.23;1.10;;;;;;;24.37;77.07;100025.22;5028430;28;20457;-53
2022/07/29 06:41:17;;;;;;;3.90;1.40;;;;;;;24.39;75.82;100024.06;5025835;28;20479;-54
2022/07/29 06:43:45;;;;;;;2.43;1.90;;;;;;;24.17;75.57;100027.84;5021442;28;20447;-53
2022/07/29 06:46:21;;;;;;;1.67;1.57;;;;;;;24.53;77.69;100030.97;5027137;28;21001;-53
2022/07/29 06:48:49;;;;;;;1.80;1.70;;;;;;;24.37;79.30;100034.22;5028125;28;20460;-52
2022/07/29 06:51:16;;;;;;;2.60;1.70;;;;;;;24.21;75.79;100025.72;5027461;28;20483;-53
2022/07/29 06:53:50;;;;;;;4.83;1.47;;;;;;;24.42;76.13;100020.25;5020793;28;20533;-54
2022/07/29 06:56:26;;;;;;;2.03;1.83;;;;;;;24.55;77.90;100025.44;5020985;28;20501;-53
2022/07/29 06:58:52;;;;;;;1.57;1.47;;;;;;;24.49;74.72;100033.13;5025569;28;20459;-53
2022/07/29 07:01:19;;;;;;;1.47;1.00;;;;;;;24.92;76.48;100034.63;5027731;28;20458;-53
2022/07/29 07:03:47;;;;;;;5.43;1.57;;;;;;;24.95;76.00;100037.09;5023793;28;20505;-52
2022/07/29 07:06:13;;;;;;;1.30;1.20;;;;;;;25.03;73.30;100045.41;5020860;28;20977;-53
2022/07/29 07:08:40;;;;;;;2.60;1.73;;;;;;;24.22;76.76;100038.31;5023782;28;20602;-53
2022/07/29 07:11:07;;;;;;;1.67;1.43;;;;;;;24.59;76.32;100040.47;5027200;28;20462;-54
2022/07/29 07:13:34;;;;;;;1.97;1.73;;;;;;;24.37;74.15;100046.97;5023777;28;20487;-54
2022/07/29 07:16:02;;;;;;;2.50;1.70;;;;;;;24.78;75.13;100035.91;5020121;28;20972;-54
2022/07/29 07:18:29;;;;;;;9.00;1.83;;;;;;;24.68;74.50;100040.50;5033468;28;20929;-54
2022/07/29 07:20:56;;;;;;;1.70;1.60;;;;;;;25.18;74.76;100042.25;5030939;28;20453;-54
2022/07/29 07:23:23;;;;;;;2.40;0.80;;;;;;;25.26;73.32;100051.44;5044065;28;20448;-54
2022/07/29 07:25:49;;;;;;;1.30;1.20;;;;;;;24.89;71.90;100045.78;5020367;28;20509;-54
2022/07/29 07:28:16;;;;;;;1.57;1.47;;;;;;;24.92;69.16;100047.38;5026683;28;20447;-54
2022/07/29 07:30:42;;;;;;;3.50;1.60;;;;;;;24.90;67.65;100050.22;5019892;28;20455;-54
2022/07/29 07:33:09;;;;;;;2.10;1.07;;;;;;;25.09;63.72;100044.84;5023583;28;20490;-54
2022/07/29 07:35:35;;;;;;;2.90;1.40;;;;;;;25.03;62.31;100048.13;5027275;28;20479;-53
2022/07/29 07:38:02;;;;;;;11.40;1.70;;;;;;;25.32;62.28;100050.00;5023683;28;20480;-55
2022/07/29 07:40:28;;;;;;;3.23;1.30;;;;;;;25.08;59.52;100047.69;5019921;28;20447;-54
2022/07/29 07:42:55;;;;;;;9.27;1.30;;;;;;;25.53;58.90;100045.25;5023447;28;20531;-55
2022/07/29 07:45:21;;;;;;;17.67;1.50;;;;;;;25.42;59.33;100047.28;5026835;28;20473;-54
2022/07/29 07:47:48;;;;;;;10.73;1.20;;;;;;;25.38;56.86;100053.00;5031163;28;20463;-54
2022/07/29 07:50:17;;;;;;;2.00;1.20;;;;;;;25.73;59.54;100042.50;5020222;28;20448;-54
2022/07/29 07:52:52;;;;;;;2.10;1.47;;;;;;;25.32;58.28;100053.56;5023128;28;20444;-54
2022/07/29 07:55:19;;;;;;;1.30;1.20;;;;;;;25.16;59.77;100039.69;5026055;28;20871;-55
2022/07/29 07:57:46;;;;;;;1.30;1.20;;;;;;;25.56;59.33;100042.25;5025022;28;20451;-55
2022/07/29 08:00:15;;;;;;;1.00;0.90;;;;;;;25.36;56.34;100052.31;5020139;28;20539;-55
2022/07/29 08:02:42;;;;;;;1.50;1.03;;;;;;;25.64;56.49;100049.69;5020378;28;20454;-54
2022/07/29 08:05:10;;;;;;;1.20;1.10;;;;;;;25.55;59.76;100045.97;5026141;28;20994;-55
2022/07/29 08:07:38;;;;;;;2.00;1.90;;;;;;;25.88;56.92;100054.66;5026349;28;20510;-55
2022/07/29 08:10:05;;;;;;;1.07;1.03;;;;;;;25.75;56.97;100051.41;5019876;28;20583;-55
2022/07/29 08:12:31;;;;;;;1.30;1.03;;;;;;;26.12;56.12;100046.84;5019544;28;20807;-55
2022/07/29 08:14:58;;;;;;;2.10;1.13;;;;;;;26.40;55.00;100049.63;5025897;28;20868;-55
2022/07/29 08:17:25;;;;;;;11.83;2.10;;;;;;;26.75;54.37;100038.81;5026754;28;20448;-55
2022/07/29 08:19:51;;;;;;;14.70;1.63;;;;;;;26.38;56.11;100051.66;5020258;28;20458;-55
2022/07/29 08:22:17;;;;;;;5.17;1.40;;;;;;;26.49;54.95;100046.84;5046053;28;20813;-55
2022/07/29 08:24:46;;;;;;;2.30;1.50;;;;;;;26.72;54.84;100043.69;5024843;28;20465;-56
2022/07/29 08:27:13;;;;;;;4.67;1.30;;;;;;;25.93;54.83;100047.78;5020313;28;20467;-54
2022/07/29 08:30:00;;;;;;;3.43;1.27;;;;;;;26.17;55.97;100047.25;5021768;28;21107;-55
2022/07/29 08:32:28;;;;;;;2.90;1.53;;;;;;;25.78;58.55;100051.13;5025940;28;20459;-55
2022/07/29 08:35:14;;;;;;;2.60;1.63;;;;;;;26.54;58.64;100058.16;5025584;28;20484;-56
2022/07/29 08:37:41;;;;;;;1.80;1.60;;;;;;;26.77;56.48;100055.00;5019970;28;20451;-56
2022/07/29 08:40:08;;;;;;;1.30;1.20;;;;;;;26.86;55.05;100052.22;5019085;28;20996;-55
2022/07/29 08:42:35;;;;;;;3.80;3.50;;;;;;;26.92;54.61;100047.16;5025053;28;20470;-55
2022/07/29 08:45:03;;;;;;;1.80;1.70;;;;;;;27.08;55.88;100042.75;5026135;28;20468;-55
2022/07/29 08:47:30;;;;;;;1.97;1.63;;;;;;;27.71;52.88;100050.84;5027276;28;20549;-55
2022/07/29 08:49:56;;;;;;;1.37;1.27;;;;;;;27.93;53.00;100046.69;5018799;28;20453;-55
2022/07/29 08:52:25;;;;;;;1.60;1.50;;;;;;;27.79;52.96;100049.16;5024697;28;20457;-56
2022/07/29 08:54:53;;;;;;;10.43;1.97;;;;;;;27.71;52.76;100047.25;5025990;28;21014;-55
2022/07/29 08:57:21;;;;;;;1.30;1.20;;;;;;;27.63;52.35;100045.25;5021431;28;20822;-55
2022/07/29 08:59:52;;;;;;;1.43;1.33;;;;;;;27.27;54.03;100049.03;5019040;28;20876;-54
2022/07/29 09:02:21;;;;;;;11.20;1.47;;;;;;;28.27;51.16;100045.91;5022107;28;20496;-55
2022/07/29 09:04:49;;;;;;;4.80;1.00;;;;;;;28.22;51.56;100042.75;5025510;28;20472;-54
2022/07/29 09:07:17;;;;;;;3.57;1.90;;;;;;;27.58;52.39;100044.03;5022981;28;20546;-56
2022/07/29 09:09:44;;;;;;;1.07;1.00;;;;;;;27.73;51.79;100043.31;5018940;28;20448;-55
2022/07/29 09:12:13;;;;;;;2.37;2.27;;;;;;;27.19;52.14;100036.19;5021019;28;20452;-55
2022/07/29 09:14:55;;;;;;;1.77;1.67;;;;;;;26.99;53.70;100031.88;5018987;28;20496;-55
2022/07/29 09:17:41;;;;;;;7.03;1.50;;;;;;;27.11;53.83;100038.84;5034898;28;20462;-54
2022/07/29 09:20:10;;;;;;;1.90;1.47;;;;;;;27.22;53.43;100033.16;5025540;28;20448;-55
2022/07/29 09:22:37;;;;;;;2.80;1.80;;;;;;;27.34;53.37;100034.63;5049364;28;20836;-55
2022/07/29 09:25:08;;;;;;;9.50;1.80;;;;;;;27.58;53.68;100033.97;5024674;28;21155;-56
2022/07/29 09:27:35;;;;;;;1.97;1.50;;;;;;;27.38;54.09;100033.28;5027239;28;20459;-55
2022/07/29 09:30:13;;;;;;;5.23;1.57;;;;;;;27.52;54.09;100039.19;5024770;28;20452;-55
2022/07/29 09:32:57;;;;;;;3.27;1.67;;;;;;;27.43;53.47;100036.41;5024116;28;20486;-56
2022/07/29 09:35:25;;;;;;;7.00;1.27;;;;;;;27.33;53.60;100034.78;5022328;28;20507;-55
2022/07/29 09:37:52;;;;;;;2.03;1.20;;;;;;;27.78;53.91;100033.78;5027453;28;20455;-55
2022/07/29 09:40:21;;;;;;;1.67;1.57;;;;;;;27.51;52.30;100038.34;5029942;28;20444;-54
2022/07/29 09:42:48;;;;;;;2.07;1.97;;;;;;;27.41;52.89;100030.25;5025777;28;20448;-55
2022/07/29 09:45:31;;;;;;;2.10;1.57;;;;;;;27.93;52.08;100034.91;5022570;28;20486;-55
2022/07/29 09:48:03;;;;;;;1.60;1.50;;;;;;;28.18;52.05;100035.91;5035666;28;20450;-55
2022/07/29 09:50:40;;;;;;;3.53;1.87;;;;;;;27.97;51.80;100031.72;5022141;28;20440;-55
2022/07/29 09:53:06;;;;;;;2.50;1.90;;;;;;;27.95;50.83;100033.72;5022338;28;20451;-55
2022/07/29 09:55:45;;;;;;;4.30;1.50;;;;;;;27.28;51.66;100034.41;5027368;28;20496;-55
2022/07/29 09:58:18;;;;;;;7.73;1.63;;;;;;;27.82;52.22;100029.69;5028940;28;20454;-56
2022/07/29 10:00:46;;;;;;;1.40;1.30;;;;;;;27.65;51.38;100026.00;5026094;28;20484;-55
2022/07/29 10:03:15;;;;;;;1.93;1.47;;;;;;;28.49;50.54;100030.75;5022250;28;20447;-55
2022/07/29 10:05:43;;;;;;;2.30;1.67;;;;;;;28.21;50.96;100024.63;5024335;28;20468;-55
2022/07/29 10:08:12;;;;;;;4.33;1.13;;;;;;;28.92;49.92;100027.00;5028859;28;20459;-55
2022/07/29 10:10:41;;;;;;;1.60;1.13;;;;;;;29.01;50.21;100036.06;5028323;28;20462;-55
2022/07/29 10:13:12;;;;;;;1.40;1.30;;;;;;;29.00;49.11;100026.16;5022003;28;20546;-55
2022/07/29 10:15:44;;;;;;;0.90;0.80;;;;;;;28.65;49.19;100019.91;5022123;28;21002;-54
2022/07/29 10:18:13;;;;;;;8.67;2.30;;;;;;;28.12;50.25;100031.09;5015681;28;20523;-55
2022/07/29 10:20:40;;;;;;;2.13;1.93;;;;;;;28.25;50.56;100029.63;5029712;28;20971;-55
2022/07/29 10:23:08;;;;;;;1.33;1.23;;;;;;;28.48;51.69;100021.69;5027907;28;20448;-56
2022/07/29 10:25:34;;;;;;;5.10;1.27;;;;;;;28.10;50.66;100022.19;5029274;28;20464;-55
2022/07/29 10:28:01;;;;;;;1.47;1.37;;;;;;;28.94;50.29;100024.94;5022518;28;20841;-55
2022/07/29 10:30:27;;;;;;;2.67;2.03;;;;;;;28.24;50.12;100018.84;5029501;28;20952;-55
2022/07/29 10:33:36;;;;;;;6.17;1.40;;;;;;;28.49;50.01;100012.47;5024720;28;20518;-55
2022/07/29 10:36:35;;;;;;;2.60;1.90;;;;;;;28.41;50.99;100008.88;4996555;28;20529;-56
2022/07/29 10:39:22;;;;;;;2.33;2.13;;;;;;;28.42;50.21;100010.59;5022779;28;20455;-56
2022/07/29 10:42:01;;;;;;;7.10;2.70;;;;;;;28.35;50.22;100013.09;5021279;28;20444;-56
2022/07/29 10:44:29;;;;;;;0.90;0.90;;;;;;;28.32;50.00;100007.97;5023986;28;20990;-55
2022/07/29 10:46:57;;;;;;;1.20;1.10;;;;;;;27.94;50.02;100004.69;5032381;28;20539;-55
2022/07/29 10:49:26;;;;;;;1.27;1.17;;;;;;;28.14;49.94;99998.97;5023114;28;20460;-55
2022/07/29 10:52:07;;;;;;;1.87;1.77;;;;;;;27.92;50.34;100001.25;5028036;28;20844;-55
2022/07/29 10:54:37;;;;;;;1.67;1.57;;;;;;;28.21;50.62;99997.28;5027553;28;20499;-55
2022/07/29 10:57:12;;;;;;;2.83;1.80;;;;;;;28.55;50.23;100000.03;5022594;28;20418;-54
2022/07/29 10:59:41;;;;;;;8.20;1.60;;;;;;;28.58;49.40;100000.53;5021378;28;20768;-55
2022/07/29 11:02:45;;;;;;;1.67;1.40;;;;;;;29.41;49.23;99991.41;5024823;28;20840;-55
2022/07/29 11:05:18;;;;;;;1.67;1.57;;;;;;;29.81;47.81;99993.28;5022946;28;20495;-55
2022/07/29 11:08:09;;;;;;;1.63;1.53;;;;;;;29.40;48.43;99986.97;5020738;28;20808;-56
2022/07/29 11:10:46;;;;;;;2.20;1.90;;;;;;;29.92;48.90;99995.66;5020969;28;20446;-56
2022/07/29 11:13:42;;;;;;;1.90;1.30;;;;;;;29.71;49.02;99989.84;5026546;28;20452;-56
2022/07/29 11:16:09;;;;;;;2.70;1.27;;;;;;;29.79;48.95;99989.84;5030727;28;20569;-56
2022/07/29 11:18:56;;;;;;;1.33;1.23;;;;;;;29.81;46.52;99987.78;5033977;28;20426;-55
2022/07/29 11:21:35;;;;;;;1.17;1.07;;;;;;;29.58;47.24;99992.28;5033838;28;20454;-55
2022/07/29 11:24:27;;;;;;;8.30;1.50;;;;;;;30.01;47.36;99996.47;5029429;28;20491;-55
2022/07/29 11:27:21;;;;;;;1.47;1.37;;;;;;;30.45;46.47;99990.50;5021515;28;20420;-55
2022/07/29 11:29:56;;;;;;;1.00;1.00;;;;;;;30.49;47.15;99994.59;5024600;28;20510;-56
2022/07/29 11:32:25;;;;;;;1.30;1.20;;;;;;;29.68;48.08;99992.97;5026956;28;20455;-55
2022/07/29 11:35:13;;;;;;;1.63;1.53;;;;;;;30.35;48.63;99991.56;5025139;28;20474;-56
2022/07/29 11:37:45;;;;;;;1.67;1.57;;;;;;;30.37;46.01;99994.13;5026410;28;20494;-56
2022/07/29 11:40:21;;;;;;;2.33;2.00;;;;;;;30.86;44.24;99997.50;5026626;28;20459;-55
2022/07/29 11:42:48;;;;;;;1.70;1.60;;;;;;;30.66;44.56;99988.84;5022999;28;20479;-55
2022/07/29 11:45:23;;;;;;;1.07;0.90;;;;;;;30.63;45.04;99993.84;5020542;28;20475;-56
2022/07/29 11:48:15;;;;;;;1.43;1.33;;;;;;;30.13;44.27;99988.75;5026834;28;20471;-56